This is the latest recevied weather packets stored in our database for station/object SP7WMI-13. If no packets are shown the sender has not sent any weather packets the latest 10 day(s).
| Time | Temp. | Humidity | Pressure | Rain* | Wind** | Luminosity | Snow |
|---|---|---|---|---|---|---|---|
| 1777727276 | 29.44° C | 24% | 1020.3 hPa | 0 mm | - | - | - |
| 1777726373 | 28.33° C | 26% | 1020.5 hPa | 0 mm | - | - | - |
| 1777725470 | 27.22° C | 28% | 1020.7 hPa | 0 mm | - | - | - |
| 1777724567 | 26.11° C | 28% | 1020.9 hPa | 0 mm | - | - | - |
| 1777723664 | 25° C | 30% | 1021.1 hPa | 0 mm | - | - | - |
| 1777722761 | 24.44° C | 29% | 1021.2 hPa | 0 mm | - | - | - |
| 1777720052 | 21.67° C | 33% | 1021.8 hPa | 0 mm | - | - | - |
| 1777719149 | 21.11° C | 35% | 1022 hPa | 0 mm | - | - | - |
| 1777716440 | 19.44° C | 38% | 1022.5 hPa | 0 mm | - | - | - |
| 1777713733 | 18.89° C | 40% | 1022.8 hPa | 0 mm | - | - | - |
| 1777667937 | 15° C | 51% | 1023.4 hPa | 0 mm | - | - | - |
| 1777665228 | 16.11° C | 45% | 1023.3 hPa | 0 mm | - | - | - |
| 1777663422 | 17.22° C | 42% | 1023.2 hPa | 0 mm | - | - | - |
| 1777662519 | 17.78° C | 39% | 1023.1 hPa | 0 mm | - | - | - |
| 1777660713 | 18.89° C | 37% | 1023 hPa | 0 mm | - | - | - |
| 1777659810 | 19.44° C | 35% | 1022.9 hPa | 0 mm | - | - | - |
| 1777658907 | 20° C | 34% | 1022.7 hPa | 0 mm | - | - | - |
| 1777658004 | 20.56° C | 32% | 1022.7 hPa | 0 mm | - | - | - |
| 1777657101 | 21.67° C | 31% | 1022.6 hPa | 0 mm | - | - | - |
| 1777656197 | 23.33° C | 30% | 1022.5 hPa | 0 mm | - | - | - |
| 1777655296 | 22.78° C | 30% | 1022.5 hPa | 0 mm | - | - | - |
| 1777653488 | 22.78° C | 29% | 1022.5 hPa | 0 mm | - | - | - |
| 1777652587 | 23.33° C | 29% | 1022.6 hPa | 0 mm | - | - | - |
| 1777651682 | 22.78° C | 31% | 1022.5 hPa | 0 mm | - | - | - |
| 1777650779 | 21.67° C | 32% | 1022.8 hPa | 0 mm | - | - | - |
* Rain since midnight (hover to see other rain measurements)
** Current wind speed in m/s (hover to see current wind gust speed)